Paynes, Mississippi
Current Conditions -  °F | °C
As of 5:40 AM on Friday 24 Oct 2014 (Local Time) from KGWO Reporting Station
Haze Haze  
Wind Chill: 45°   Ceiling: Unl
Heat Index: 45°   Visibility: 3mi
Dew Point: 43°   Wind: 0mph
Humidity: 93%   Direction: NA
Pressure: 30.13"   Gusts: NA
Location:  33.8947°N, 90.0323°W
Report Text: KGWO 241040Z AUTO 00000KT 3SM BR CLR 07/06 A3013 RMK AO2 T00720061 TSNO
Loading
Personal Weather Stations






























Interactive Weather Map
Tropical Storm Tracking
New forecast layout! Learn more

10-Day Weather Forecast

Advertisements
Track Severe Weather on mobile